Time;durP1;ratioP1;P1;durP2;ratioP2;P2;SDS_P1;SDS_P2;PMS_P1;PMS_P2;Temp;Humidity;BMP_temperature;BMP_pressure;BME280_temperature;BME280_humidity;BME280_pressure;Samples;Min_cycle;Max_cycle;Signal;HPM_P1;HPM_P2
2021/11/11 00:02:00;;;;;;;41.50;25.00;;;6.80;96.60;;;;;;5062414;28;20200;-83
2021/11/11 00:04:26;;;;;;;38.43;23.90;;;6.90;96.00;;;;;;5062734;28;20168;-81
2021/11/11 00:06:52;;;;;;;40.33;25.07;;;6.90;95.10;;;;;;5079690;28;20165;-81
2021/11/11 00:09:18;;;;;;;34.20;24.00;;;6.90;95.20;;;;;;5078567;28;20203;-82
2021/11/11 00:11:44;;;;;;;36.93;23.87;;;7.00;94.80;;;;;;5059635;28;20237;-83
2021/11/11 00:14:10;;;;;;;37.80;24.47;;;7.00;94.20;;;;;;5059874;28;20204;-83
2021/11/11 00:16:36;;;;;;;34.57;24.07;;;6.90;94.20;;;;;;5078812;28;20175;-80
2021/11/11 00:19:03;;;;;;;38.27;25.93;;;6.90;94.30;;;;;;5061769;28;20169;-82
2021/11/11 00:21:29;;;;;;;37.60;25.67;;;7.10;93.90;;;;;;5059163;28;20213;-82
2021/11/11 00:23:55;;;;;;;32.43;22.90;;;7.00;93.00;;;;;;5062679;28;20169;-82
2021/11/11 00:26:22;;;;;;;35.70;23.70;;;6.90;93.00;;;;;;5076168;28;20188;-82
2021/11/11 00:28:51;;;;;;;38.07;24.23;;;6.90;93.60;;;;;;5056602;28;20169;-82
2021/11/11 00:31:16;;;;;;;41.90;24.97;;;7.10;92.20;;;;;;5055829;28;20244;-82
2021/11/11 00:33:42;;;;;;;40.87;24.73;;;7.30;90.20;;;;;;5058754;28;20200;-81
2021/11/11 00:36:08;;;;;;;35.50;25.20;;;7.20;88.10;;;;;;5060577;28;20165;-83
2021/11/11 00:38:33;;;;;;;38.00;24.30;;;7.10;88.40;;;;;;5061548;28;20157;-82
2021/11/11 00:40:59;;;;;;;36.37;23.83;;;7.40;90.10;;;;;;5052856;28;20306;-82
2021/11/11 00:43:26;;;;;;;39.03;24.47;;;7.10;90.50;;;;;;5040546;28;20169;-83
2021/11/11 00:45:52;;;;;;;36.43;25.30;;;7.20;90.10;;;;;;5040806;28;20254;-82
2021/11/11 00:48:19;;;;;;;36.27;25.33;;;7.20;87.90;;;;;;5040962;28;20169;-81
2021/11/11 00:50:45;;;;;;;40.10;24.20;;;7.30;82.10;;;;;;5042094;28;20264;-82
2021/11/11 00:53:10;;;;;;;38.87;25.30;;;7.30;80.20;;;;;;5058754;28;20196;-81
2021/11/11 00:55:37;;;;;;;38.60;25.43;;;7.30;82.40;;;;;;5039722;28;20207;-82
2021/11/11 00:58:04;;;;;;;37.50;25.27;;;7.20;86.40;;;;;;5056478;28;20234;-82
2021/11/11 01:00:36;;;;;;;38.07;25.13;;;7.00;90.00;;;;;;5054831;28;20173;-81
2021/11/11 01:03:05;;;;;;;34.63;24.40;;;6.80;91.70;;;;;;5037748;28;20184;-81
2021/11/11 01:05:31;;;;;;;35.57;23.23;;;6.70;93.00;;;;;;5037745;28;20255;-81
2021/11/11 01:07:57;;;;;;;38.23;24.37;;;6.70;94.60;;;;;;5037142;28;20180;-81
2021/11/11 01:10:23;;;;;;;35.07;23.57;;;6.50;95.20;;;;;;5055439;28;20260;-82
2021/11/11 01:12:50;;;;;;;34.63;23.20;;;6.50;95.90;;;;;;5037516;28;20173;-83
2021/11/11 01:15:20;;;;;;;34.57;22.33;;;6.50;96.30;;;;;;5040362;28;20268;-81
2021/11/11 01:17:46;;;;;;;35.50;23.43;;;6.60;96.20;;;;;;5041208;28;20533;-83
2021/11/11 01:20:14;;;;;;;33.00;22.77;;;6.50;95.90;;;;;;5038292;28;20173;-83
2021/11/11 01:22:41;;;;;;;34.77;22.90;;;6.50;96.10;;;;;;5038102;28;20541;-82
2021/11/11 01:25:10;;;;;;;33.63;22.77;;;6.70;95.40;;;;;;5039285;28;20562;-82
2021/11/11 01:27:35;;;;;;;35.97;21.93;;;6.80;94.20;;;;;;5038151;28;20654;-81
2021/11/11 01:30:02;;;;;;;34.83;22.23;;;6.80;94.10;;;;;;5037514;28;20212;-83
2021/11/11 01:32:27;;;;;;;36.00;22.43;;;6.50;94.80;;;;;;5037009;28;20201;-82
2021/11/11 01:34:54;;;;;;;33.73;21.90;;;6.40;95.70;;;;;;5037310;28;20180;-83
2021/11/11 01:37:19;;;;;;;35.67;22.97;;;6.40;96.30;;;;;;5037540;28;20181;-82
2021/11/11 01:39:45;;;;;;;35.53;21.77;;;6.60;96.60;;;;;;5054576;28;20579;-83
2021/11/11 01:42:11;;;;;;;32.20;22.90;;;6.50;96.50;;;;;;5039392;28;20609;-82
2021/11/11 01:44:37;;;;;;;30.73;21.50;;;6.60;96.40;;;;;;5055725;28;20184;-82
2021/11/11 01:47:03;;;;;;;30.33;21.90;;;6.60;96.50;;;;;;5038037;28;20180;-82
2021/11/11 01:49:28;;;;;;;28.30;20.43;;;6.60;96.20;;;;;;5037259;28;20169;-82
2021/11/11 01:51:54;;;;;;;32.73;21.93;;;6.50;96.00;;;;;;5038439;28;20655;-82
2021/11/11 01:54:20;;;;;;;29.97;21.07;;;6.50;96.50;;;;;;5037984;28;20172;-83
2021/11/11 01:56:46;;;;;;;32.97;20.87;;;6.50;96.80;;;;;;5057442;28;20590;-82
2021/11/11 01:59:12;;;;;;;30.47;21.17;;;6.50;96.90;;;;;;5054500;28;20169;-82
2021/11/11 02:01:38;;;;;;;30.23;20.80;;;6.50;96.70;;;;;;5036548;28;20546;-84
2021/11/11 02:04:04;;;;;;;30.63;21.40;;;6.50;96.90;;;;;;5054049;28;20169;-82
2021/11/11 02:06:30;;;;;;;32.13;20.93;;;6.70;96.50;;;;;;5036132;28;20184;-81
2021/11/11 02:08:56;;;;;;;32.20;21.63;;;6.80;95.50;;;;;;5036350;28;20529;-83
2021/11/11 02:11:23;;;;;;;32.50;21.77;;;6.70;93.80;;;;;;5037061;28;20580;-83
2021/11/11 02:13:49;;;;;;;29.80;21.20;;;6.60;94.00;;;;;;5036571;28;20173;-83
2021/11/11 02:16:16;;;;;;;27.53;22.00;;;6.50;95.20;;;;;;5036785;28;20196;-83
2021/11/11 02:18:42;;;;;;;27.40;21.17;;;6.60;95.80;;;;;;5037185;28;20187;-84
2021/11/11 02:21:08;;;;;;;29.83;21.13;;;6.60;96.10;;;;;;5054421;28;20209;-82
2021/11/11 02:23:34;;;;;;;28.90;20.77;;;6.50;96.20;;;;;;5037255;28;20647;-81
2021/11/11 02:26:03;;;;;;;30.20;21.07;;;6.40;96.20;;;;;;5042797;28;20200;-81
2021/11/11 02:28:29;;;;;;;31.57;21.53;;;6.40;96.80;;;;;;5063640;28;20166;-82
2021/11/11 02:30:55;;;;;;;30.20;21.10;;;6.50;97.10;;;;;;5046534;28;20183;-80
2021/11/11 02:33:25;;;;;;;29.93;21.27;;;6.70;96.90;;;;;;5063083;28;20191;-82
2021/11/11 02:35:51;;;;;;;29.03;20.73;;;6.70;96.70;;;;;;5059540;28;20248;-82
2021/11/11 02:38:18;;;;;;;32.80;21.27;;;7.00;96.40;;;;;;5036358;28;20173;-83
2021/11/11 02:40:45;;;;;;;31.27;21.30;;;7.00;95.60;;;;;;5035878;28;20199;-82
2021/11/11 02:43:13;;;;;;;30.47;19.77;;;6.90;94.90;;;;;;5036627;28;20616;-81
2021/11/11 02:45:43;;;;;;;28.90;20.80;;;6.70;94.70;;;;;;5037599;28;20173;-80
2021/11/11 02:48:11;;;;;;;28.60;20.53;;;6.70;95.40;;;;;;5036740;28;20173;-80
2021/11/11 02:50:38;;;;;;;29.53;20.83;;;6.70;95.80;;;;;;5057628;28;20149;-80
2021/11/11 02:53:06;;;;;;;34.30;21.43;;;6.70;95.70;;;;;;5042219;28;20173;-80
2021/11/11 02:55:33;;;;;;;30.50;20.37;;;6.70;95.40;;;;;;5043079;28;20532;-81
2021/11/11 02:57:59;;;;;;;29.53;21.27;;;6.60;95.60;;;;;;5041125;28;20175;-81
2021/11/11 03:01:03;;;;;;;27.53;19.40;;;6.50;96.10;;;;;;5040384;28;20218;-82
2021/11/11 03:03:29;;;;;;;29.60;20.57;;;6.60;96.60;;;;;;5041578;28;20195;-80
2021/11/11 03:05:55;;;;;;;30.73;22.07;;;6.70;95.80;;;;;;5036356;28;20555;-83
2021/11/11 03:08:22;;;;;;;29.90;21.20;;;6.70;94.90;;;;;;5035870;28;20235;-81
2021/11/11 03:10:48;;;;;;;30.33;22.20;;;6.70;94.60;;;;;;5038465;28;20611;-80
2021/11/11 03:13:16;;;;;;;30.27;21.00;;;6.70;94.30;;;;;;5060625;28;20177;-82
2021/11/11 03:15:42;;;;;;;31.57;21.20;;;6.60;94.20;;;;;;5061414;28;20165;-81
2021/11/11 03:18:10;;;;;;;31.73;21.57;;;6.40;94.90;;;;;;5059831;28;20175;-82
2021/11/11 03:20:36;;;;;;;35.50;22.27;;;6.30;96.30;;;;;;5044377;28;20208;-81
2021/11/11 03:23:03;;;;;;;30.27;22.07;;;6.60;95.60;;;;;;5044556;28;20203;-82
2021/11/11 03:25:31;;;;;;;31.67;22.27;;;6.40;95.00;;;;;;5042412;28;20189;-83
2021/11/11 03:27:57;;;;;;;32.30;21.40;;;6.10;96.80;;;;;;5039751;28;20169;-82
2021/11/11 03:30:25;;;;;;;32.13;22.20;;;6.00;98.70;;;;;;5048727;28;20279;-81
2021/11/11 03:32:51;;;;;;;32.33;22.63;;;6.00;99.90;;;;;;5067355;28;20177;-80
2021/11/11 03:35:18;;;;;;;34.57;21.63;;;6.10;99.90;;;;;;5050082;28;20532;-80
2021/11/11 03:37:46;;;;;;;30.87;22.37;;;6.20;99.90;;;;;;5060118;28;20212;-83
2021/11/11 03:40:16;;;;;;;32.30;21.87;;;6.20;99.90;;;;;;5039454;28;20196;-83
2021/11/11 03:42:46;;;;;;;33.33;22.53;;;6.20;99.90;;;;;;5039480;28;20236;-83
2021/11/11 03:45:13;;;;;;;30.27;22.17;;;6.20;99.90;;;;;;5039200;28;20724;-83
2021/11/11 03:47:39;;;;;;;31.33;22.83;;;6.30;99.90;;;;;;5039189;28;20204;-82
2021/11/11 03:50:06;;;;;;;36.23;22.00;;;6.30;99.90;;;;;;5041693;28;20656;-81
2021/11/11 03:52:32;;;;;;;27.53;21.43;;;6.30;99.90;;;;;;5042532;28;20169;-81
2021/11/11 03:54:58;;;;;;;29.27;21.30;;;6.20;99.90;;;;;;5060930;28;20637;-81
2021/11/11 03:57:24;;;;;;;31.87;23.20;;;6.10;99.90;;;;;;5040760;28;20181;-82
2021/11/11 03:59:50;;;;;;;32.17;21.90;;;6.20;99.90;;;;;;5059832;28;20196;-81
2021/11/11 04:02:16;;;;;;;39.27;23.17;;;6.30;99.90;;;;;;5040433;28;20211;-81
2021/11/11 04:04:42;;;;;;;34.77;21.33;;;6.30;99.90;;;;;;5065997;28;20161;-82
2021/11/11 04:07:08;;;;;;;31.40;22.23;;;6.30;99.90;;;;;;5044138;28;20269;-83
2021/11/11 04:09:34;;;;;;;31.47;21.53;;;6.50;99.90;;;;;;5039018;28;20185;-82
2021/11/11 04:12:01;;;;;;;33.63;21.73;;;6.50;99.90;;;;;;5056268;28;20275;-84
2021/11/11 04:14:27;;;;;;;30.53;20.43;;;6.60;99.90;;;;;;5038724;28;20291;-82
2021/11/11 04:16:53;;;;;;;31.90;22.00;;;6.60;99.90;;;;;;5038232;28;20211;-83
2021/11/11 04:19:19;;;;;;;32.60;22.30;;;6.60;99.90;;;;;;5056110;28;20169;-84
2021/11/11 04:21:44;;;;;;;32.27;21.30;;;6.50;99.80;;;;;;5038578;28;20212;-83
2021/11/11 04:24:10;;;;;;;31.77;22.43;;;6.50;99.90;;;;;;5057259;28;20519;-83
2021/11/11 04:26:51;;;;;;;32.33;22.93;;;6.60;99.90;;;;;;5056350;28;20189;-84
2021/11/11 04:29:28;;;;;;;32.13;21.17;;;6.70;99.00;;;;;;5039137;28;20176;-83
2021/11/11 04:31:58;;;;;;;32.60;22.17;;;6.90;99.00;;;;;;5038431;28;20196;-83
2021/11/11 04:34:26;;;;;;;31.40;21.93;;;6.80;98.20;;;;;;5038427;28;20173;-82
2021/11/11 04:59:27;;;;;;;32.53;20.63;;;6.70;99.00;;;;;;4975169;28;20539;-82
2021/11/11 05:01:37;;;;;;;32.57;22.93;;;6.40;99.50;;;;;;5057002;28;20215;-82
2021/11/11 05:04:03;;;;;;;34.70;22.33;;;6.80;99.90;;;;;;5038205;28;20184;-82
2021/11/11 05:06:29;;;;;;;34.67;22.27;;;6.60;98.30;;;;;;5038175;28;20169;-80
2021/11/11 05:08:56;;;;;;;32.13;21.97;;;6.60;99.00;;;;;;5046842;28;20170;-80
2021/11/11 05:11:22;;;;;;;31.70;20.87;;;6.50;99.50;;;;;;5055089;28;20318;-83
2021/11/11 05:13:48;;;;;;;28.77;20.57;;;6.50;99.90;;;;;;5037141;28;20617;-82
2021/11/11 05:16:14;;;;;;;32.73;21.60;;;6.50;99.90;;;;;;5037203;28;20212;-82
2021/11/11 05:18:39;;;;;;;31.67;21.60;;;6.60;99.90;;;;;;5054998;28;20196;-82
2021/11/11 05:21:05;;;;;;;32.50;21.07;;;6.70;99.90;;;;;;5037175;28;20193;-82
2021/11/11 05:23:31;;;;;;;31.83;21.03;;;6.80;99.90;;;;;;5037388;28;20322;-82
2021/11/11 05:25:57;;;;;;;30.07;21.40;;;6.90;99.70;;;;;;5037286;28;20750;-82
2021/11/11 05:28:23;;;;;;;27.97;21.17;;;6.80;98.70;;;;;;5036760;28;20267;-82
2021/11/11 05:30:49;;;;;;;27.17;20.90;;;6.80;98.60;;;;;;5036755;28;20173;-82
2021/11/11 05:33:15;;;;;;;27.90;22.03;;;6.80;99.00;;;;;;5036404;28;20177;-82
2021/11/11 05:35:41;;;;;;;26.37;19.67;;;6.80;98.90;;;;;;5054685;28;20171;-82
2021/11/11 05:38:06;;;;;;;31.40;21.10;;;6.70;99.40;;;;;;5036937;28;20242;-80
2021/11/11 05:40:33;;;;;;;30.27;22.03;;;7.00;98.50;;;;;;5037018;28;20637;-80
2021/11/11 05:42:58;;;;;;;32.00;20.83;;;7.20;96.00;;;;;;5036713;28;20172;-81
2021/11/11 05:45:25;;;;;;;30.13;21.13;;;7.00;95.80;;;;;;5055467;28;20223;-81
2021/11/11 05:47:51;;;;;;;33.03;22.97;;;6.80;96.80;;;;;;5036586;28;20251;-81
2021/11/11 05:50:18;;;;;;;33.37;22.43;;;6.70;98.20;;;;;;5054678;28;20256;-81
2021/11/11 05:52:43;;;;;;;30.73;20.50;;;6.70;98.80;;;;;;5037099;28;20222;-80
2021/11/11 05:55:10;;;;;;;29.33;21.73;;;6.60;99.10;;;;;;5036718;28;20169;-81
2021/11/11 05:57:36;;;;;;;27.60;20.30;;;6.60;99.60;;;;;;5054535;28;20243;-81
2021/11/11 06:00:05;;;;;;;31.13;21.37;;;6.60;99.90;;;;;;5036960;28;20654;-81
2021/11/11 06:02:31;;;;;;;32.63;22.70;;;6.80;99.90;;;;;;5037763;28;20688;-81
2021/11/11 06:04:57;;;;;;;30.00;22.10;;;6.90;99.10;;;;;;5038031;28;20239;-81
2021/11/11 06:07:22;;;;;;;29.33;19.70;;;7.00;98.10;;;;;;5037025;28;20311;-81
2021/11/11 06:09:48;;;;;;;33.57;21.23;;;7.00;97.60;;;;;;5036613;28;20556;-81
2021/11/11 06:12:14;;;;;;;29.07;21.77;;;6.90;97.90;;;;;;5036215;28;20180;-82
2021/11/11 06:14:40;;;;;;;31.03;21.53;;;6.90;98.30;;;;;;5057032;28;20172;-81
2021/11/11 06:17:06;;;;;;;30.07;19.90;;;7.00;97.50;;;;;;5042047;28;20199;-81
2021/11/11 06:19:37;;;;;;;34.37;20.63;;;7.00;97.00;;;;;;5057519;28;20161;-82
2021/11/11 06:22:04;;;;;;;29.23;21.03;;;7.00;97.10;;;;;;5058654;28;20285;-82
2021/11/11 06:24:30;;;;;;;29.10;21.27;;;6.90;97.60;;;;;;5042801;28;20568;-82
2021/11/11 06:26:57;;;;;;;31.23;21.77;;;6.90;97.80;;;;;;5041787;28;20260;-82
2021/11/11 06:29:23;;;;;;;28.60;21.30;;;6.90;98.00;;;;;;5048179;28;20169;-81
2021/11/11 06:31:48;;;;;;;31.80;21.50;;;6.90;97.90;;;;;;5045169;28;20207;-82
2021/11/11 06:34:14;;;;;;;27.83;20.50;;;6.80;98.00;;;;;;5049382;28;20177;-81
2021/11/11 06:36:40;;;;;;;25.70;19.27;;;7.00;98.30;;;;;;5036004;28;20180;-80
2021/11/11 06:39:07;;;;;;;29.77;19.10;;;7.10;98.00;;;;;;5036131;28;20180;-81
2021/11/11 06:41:33;;;;;;;31.90;20.37;;;7.00;98.10;;;;;;5036157;28;20217;-85
2021/11/11 06:43:59;;;;;;;28.17;20.90;;;7.20;97.30;;;;;;5054570;28;20613;-82
2021/11/11 06:46:24;;;;;;;32.53;20.80;;;7.40;95.10;;;;;;5054059;28;20561;-82
2021/11/11 06:48:51;;;;;;;27.07;20.20;;;7.40;93.90;;;;;;5054305;28;20180;-82
2021/11/11 06:51:17;;;;;;;28.33;21.43;;;7.70;92.50;;;;;;5062259;28;20172;-83
2021/11/11 06:53:43;;;;;;;30.17;21.60;;;7.60;90.90;;;;;;5056089;28;20644;-81
2021/11/11 06:56:09;;;;;;;28.63;20.23;;;7.60;90.70;;;;;;5055506;28;20184;-81
2021/11/11 06:58:34;;;;;;;30.77;21.37;;;7.50;90.80;;;;;;5072547;28;20188;-82
2021/11/11 07:01:02;;;;;;;30.07;20.67;;;7.40;91.80;;;;;;5068683;28;20274;-82
2021/11/11 07:03:29;;;;;;;27.30;20.33;;;7.50;92.90;;;;;;5035530;28;20268;-82
2021/11/11 07:05:56;;;;;;;31.87;20.90;;;7.60;90.60;;;;;;5035228;28;20193;-82
2021/11/11 07:08:22;;;;;;;32.00;22.23;;;7.80;87.30;;;;;;5054219;28;20165;-82
2021/11/11 07:10:50;;;;;;;31.60;21.80;;;7.90;79.20;;;;;;5057491;28;20176;-82
2021/11/11 07:13:18;;;;;;;32.47;20.67;;;7.80;77.80;;;;;;5055990;28;20230;-84
2021/11/11 07:15:44;;;;;;;30.67;21.40;;;7.80;78.20;;;;;;5073516;28;20556;-82
2021/11/11 07:18:11;;;;;;;28.27;20.03;;;7.80;77.70;;;;;;5055603;28;20163;-82
2021/11/11 07:20:43;;;;;;;30.10;20.67;;;7.70;77.30;;;;;;5054879;28;20535;-82
2021/11/11 07:23:09;;;;;;;28.23;21.37;;;7.70;77.50;;;;;;5053596;28;20173;-84
2021/11/11 07:25:35;;;;;;;28.83;20.63;;;7.70;81.40;;;;;;5034805;28;20201;-82
2021/11/11 07:28:02;;;;;;;30.13;20.53;;;7.50;85.20;;;;;;5053203;28;20636;-82
2021/11/11 07:30:28;;;;;;;26.37;19.40;;;7.40;90.10;;;;;;5044972;28;20176;-82
2021/11/11 07:32:54;;;;;;;26.43;19.07;;;7.30;91.50;;;;;;5072355;28;20184;-82
2021/11/11 07:35:20;;;;;;;27.40;20.10;;;7.30;92.80;;;;;;5073412;28;20642;-82
2021/11/11 07:37:50;;;;;;;29.90;19.77;;;7.30;93.20;;;;;;5056474;28;20628;-82
2021/11/11 07:40:20;;;;;;;27.07;18.40;;;7.30;93.10;;;;;;5071721;28;20173;-82
2021/11/11 07:42:48;;;;;;;29.83;19.97;;;7.50;93.20;;;;;;5053451;28;20205;-81
2021/11/11 07:45:17;;;;;;;26.77;19.07;;;7.80;91.00;;;;;;5035329;28;20292;-82
2021/11/11 07:47:43;;;;;;;30.40;19.60;;;7.60;88.40;;;;;;5035439;28;20633;-83
2021/11/11 07:50:10;;;;;;;26.10;19.17;;;7.60;90.10;;;;;;5053463;28;20169;-81
2021/11/11 07:52:36;;;;;;;29.80;19.50;;;7.50;90.30;;;;;;5037870;28;20177;-80
2021/11/11 07:55:03;;;;;;;27.10;19.10;;;7.60;91.80;;;;;;5055375;28;20185;-82
2021/11/11 07:57:31;;;;;;;29.33;19.23;;;7.50;92.60;;;;;;5039048;28;20211;-82
2021/11/11 07:59:58;;;;;;;27.23;19.77;;;7.60;92.90;;;;;;5052552;28;20177;-84
2021/11/11 08:02:24;;;;;;;26.07;19.33;;;7.70;92.70;;;;;;5057536;28;20200;-83
2021/11/11 08:04:52;;;;;;;27.80;19.07;;;8.00;91.20;;;;;;5043769;28;20208;-83
2021/11/11 08:07:18;;;;;;;25.40;19.00;;;8.10;87.20;;;;;;5068548;28;20208;-81
2021/11/11 08:09:48;;;;;;;30.00;20.17;;;8.10;85.20;;;;;;5069241;28;20188;-84
2021/11/11 08:12:14;;;;;;;23.03;18.27;;;8.20;82.50;;;;;;5089749;28;20180;-84
2021/11/11 08:14:40;;;;;;;27.90;19.50;;;8.30;77.20;;;;;;5078906;28;20177;-83
2021/11/11 08:17:08;;;;;;;25.33;18.73;;;8.30;76.40;;;;;;5042080;28;20504;-82
2021/11/11 08:19:34;;;;;;;29.47;21.07;;;8.40;76.60;;;;;;5063192;28;20176;-81
2021/11/11 08:22:00;;;;;;;25.07;19.17;;;8.50;76.70;;;;;;5049301;28;20307;-83
2021/11/11 08:24:26;;;;;;;31.10;20.43;;;8.50;75.30;;;;;;5062257;28;20648;-83
2021/11/11 08:26:52;;;;;;;28.50;19.00;;;8.40;72.50;;;;;;5040345;28;20664;-82
2021/11/11 08:29:17;;;;;;;24.17;18.27;;;8.30;73.60;;;;;;5042982;28;20180;-85
2021/11/11 08:31:44;;;;;;;27.10;18.93;;;8.10;75.20;;;;;;5065159;28;20330;-83
2021/11/11 08:34:10;;;;;;;30.00;19.90;;;8.10;78.90;;;;;;5066095;28;20173;-82
2021/11/11 08:36:42;;;;;;;26.80;18.43;;;7.80;82.80;;;;;;5046243;28;20203;-82
2021/11/11 08:39:08;;;;;;;27.63;19.33;;;7.80;86.50;;;;;;5060948;28;20179;-83
2021/11/11 08:41:33;;;;;;;30.50;19.67;;;7.70;87.50;;;;;;5058180;28;20196;-82
2021/11/11 08:44:01;;;;;;;27.63;20.27;;;7.70;90.00;;;;;;5040705;28;20246;-82
2021/11/11 08:46:27;;;;;;;30.90;20.03;;;7.80;90.40;;;;;;5041658;28;20680;-82
2021/11/11 08:48:54;;;;;;;29.03;19.50;;;7.90;90.00;;;;;;5036487;28;20195;-82
2021/11/11 08:51:20;;;;;;;25.53;18.37;;;7.90;88.70;;;;;;5042748;28;20180;-84
2021/11/11 08:53:46;;;;;;;26.43;19.67;;;7.80;87.20;;;;;;5039317;28;20175;-83
2021/11/11 08:56:12;;;;;;;27.30;19.77;;;7.80;88.40;;;;;;5041325;28;20264;-84
2021/11/11 08:58:38;;;;;;;30.70;19.77;;;7.80;88.90;;;;;;5057944;28;20204;-86
2021/11/11 09:01:06;;;;;;;27.90;20.07;;;7.90;90.00;;;;;;5042248;28;20192;-88
2021/11/11 09:03:36;;;;;;;28.47;19.77;;;8.10;90.20;;;;;;5057610;28;20173;-82
2021/11/11 09:06:02;;;;;;;26.07;20.13;;;8.20;88.00;;;;;;5072046;28;20164;-81
2021/11/11 09:08:29;;;;;;;29.03;19.10;;;8.10;85.90;;;;;;5081596;28;20180;-82
2021/11/11 09:10:57;;;;;;;29.17;20.80;;;8.10;86.60;;;;;;5086348;28;20176;-83
2021/11/11 09:13:24;;;;;;;32.33;20.20;;;8.30;86.80;;;;;;5074065;28;20176;-83
2021/11/11 09:15:49;;;;;;;26.53;19.90;;;8.40;84.80;;;;;;5072237;28;20200;-85
2021/11/11 09:18:16;;;;;;;28.73;19.30;;;8.50;83.80;;;;;;5063891;28;20198;-86
2021/11/11 09:20:42;;;;;;;27.27;18.87;;;8.50;79.00;;;;;;5060860;28;20172;-87
2021/11/11 09:23:09;;;;;;;27.93;18.77;;;8.50;74.30;;;;;;5060260;28;20238;-85
2021/11/11 09:25:35;;;;;;;29.27;19.53;;;8.50;76.00;;;;;;5046194;28;20220;-85
2021/11/11 09:28:03;;;;;;;24.67;17.97;;;8.50;75.90;;;;;;5058534;28;20165;-84
2021/11/11 09:30:33;;;;;;;27.43;19.40;;;8.60;75.30;;;;;;5058507;28;20179;-85
2021/11/11 09:32:59;;;;;;;26.50;20.27;;;8.60;72.60;;;;;;5041370;28;20181;-82
2021/11/11 09:35:26;;;;;;;30.13;19.77;;;8.50;71.60;;;;;;5040044;28;20172;-85
2021/11/11 09:37:52;;;;;;;29.13;20.13;;;8.40;74.00;;;;;;5059654;28;20165;-84
2021/11/11 09:40:21;;;;;;;26.03;20.33;;;8.50;76.20;;;;;;5062380;28;20675;-85
2021/11/11 09:42:47;;;;;;;29.73;18.97;;;8.70;71.50;;;;;;5042222;28;20208;-82
2021/11/11 09:45:16;;;;;;;26.40;18.73;;;8.70;68.80;;;;;;5060729;28;20175;-83
2021/11/11 09:47:45;;;;;;;24.53;18.97;;;8.80;67.60;;;;;;5045192;28;20169;-82
2021/11/11 09:50:11;;;;;;;25.37;18.57;;;9.10;59.40;;;;;;5063795;28;20149;-83
2021/11/11 09:52:41;;;;;;;24.93;18.27;;;9.10;55.20;;;;;;5044942;28;20650;-84
2021/11/11 10:00:42;;;;;;;26.27;19.63;;;9.40;49.10;;;;;;5058762;28;20222;-81
2021/11/11 10:03:07;;;;;;;30.17;19.80;;;9.40;48.60;;;;;;5040132;28;20652;-82
2021/11/11 10:05:34;;;;;;;25.83;18.97;;;9.50;45.00;;;;;;5040504;28;20176;-83
2021/11/11 10:08:27;;;;;;;27.73;19.10;;;9.60;38.90;;;;;;5039419;28;20643;-83
2021/11/11 10:10:52;;;;;;;29.53;19.63;;;9.60;39.20;;;;;;5057274;28;20188;-83
2021/11/11 10:13:20;;;;;;;27.93;19.57;;;9.60;38.30;;;;;;5039713;28;20177;-83
2021/11/11 10:16:10;;;;;;;29.03;20.83;;;9.80;29.20;;;;;;5060460;28;20184;-83
2021/11/11 10:18:37;;;;;;;27.23;19.63;;;9.90;23.00;;;;;;5060811;28;20169;-84
2021/11/11 10:21:03;;;;;;;25.47;18.67;;;9.90;23.20;;;;;;5048402;28;20201;-81
2021/11/11 10:23:29;;;;;;;27.80;19.27;;;10.00;21.60;;;;;;5049733;28;20241;-83
2021/11/11 10:26:16;;;;;;;28.47;20.17;;;9.60;28.80;;;;;;5069517;28;20188;-83
2021/11/11 10:28:42;;;;;;;27.73;19.50;;;9.50;41.90;;;;;;5049204;28;20188;-81
2021/11/11 10:31:20;;;;;;;25.27;19.57;;;9.70;36.60;;;;;;5032996;28;20652;-83
2021/11/11 10:34:05;;;;;;;31.17;19.87;;;9.70;36.70;;;;;;5045153;28;20172;-84
2021/11/11 10:36:41;;;;;;;27.03;18.77;;;9.60;40.60;;;;;;5065724;28;20176;-82
2021/11/11 10:39:09;;;;;;;28.07;19.00;;;9.60;43.20;;;;;;5047341;28;20172;-81
2021/11/11 10:41:36;;;;;;;27.67;18.53;;;9.60;43.90;;;;;;5047155;28;20192;-83
2021/11/11 10:44:27;;;;;;;26.97;18.03;;;9.80;41.60;;;;;;5062728;28;20173;-84
2021/11/11 10:46:56;;;;;;;23.90;18.50;;;9.80;37.80;;;;;;5045820;28;20195;-82
2021/11/11 10:49:40;;;;;;;24.23;18.47;;;9.70;36.10;;;;;;5043799;28;20573;-82
2021/11/11 10:52:30;;;;;;;30.33;19.67;;;9.90;36.90;;;;;;5042416;28;20172;-83
2021/11/11 10:55:09;;;;;;;24.80;18.40;;;10.00;33.50;;;;;;5042343;28;20161;-81
2021/11/11 10:57:53;;;;;;;25.37;17.50;;;10.20;30.00;;;;;;5042825;28;20184;-83
2021/11/11 11:00:40;;;;;;;24.77;17.43;;;10.30;16.30;;;;;;5044146;28;20172;-83
2021/11/11 11:03:18;;;;;;;23.70;18.23;;;10.30;15.80;;;;;;5040902;28;20188;-83
2021/11/11 11:05:50;;;;;;;27.37;18.90;;;10.30;17.90;;;;;;5057551;28;20164;-82
2021/11/11 11:08:30;;;;;;;26.57;17.97;;;10.20;18.40;;;;;;5042425;28;20516;-82
2021/11/11 11:11:04;;;;;;;24.50;18.00;;;10.20;22.00;;;;;;5041302;28;20201;-83
2021/11/11 11:13:38;;;;;;;28.40;19.20;;;10.40;22.30;;;;;;5042200;28;20169;-84
2021/11/11 11:16:07;;;;;;;27.03;19.10;;;10.40;21.10;;;;;;5038014;28;20543;-85
2021/11/11 11:18:36;;;;;;;25.17;18.43;;;10.60;18.50;;;;;;5055399;28;20294;-86
2021/11/11 11:21:23;;;;;;;27.23;18.73;;;10.60;10.70;;;;;;5043035;28;20253;-84
2021/11/11 11:23:51;;;;;;;27.47;19.47;;;10.80;3.30;;;;;;5043565;28;20169;-83
2021/11/11 11:26:20;;;;;;;25.97;18.53;;;10.80;6.10;;;;;;5040454;28;20196;-83
2021/11/11 11:31:47;;;;;;;28.10;19.63;;;11.10;1.00;;;;;;5056685;28;20575;-84
2021/11/11 11:34:20;;;;;;;25.10;19.20;;;11.20;1.00;;;;;;5041088;28;20173;-83
2021/11/11 11:36:50;;;;;;;26.30;19.40;;;11.30;1.00;;;;;;5058949;28;20172;-83
2021/11/11 11:39:40;;;;;;;24.43;17.57;;;11.30;1.00;;;;;;5040829;28;20223;-85
2021/11/11 11:42:09;;;;;;;24.80;19.47;;;11.20;1.00;;;;;;5040663;28;20643;-84
2021/11/11 11:44:37;;;;;;;26.63;18.63;;;11.10;1.00;;;;;;5041446;28;20541;-85
2021/11/11 11:47:57;;;;;;;24.87;17.53;;;11.30;1.00;;;;;;5040239;28;20212;-84
2021/11/11 11:50:28;;;;;;;26.10;18.07;;;11.50;1.00;;;;;;5057399;28;20724;-84
2021/11/11 11:53:00;;;;;;;25.27;18.50;;;11.40;1.00;;;;;;5040851;28;20484;-83
2021/11/11 12:14:30;;;;;;;23.27;17.70;;;11.30;1.00;;;;;;5057741;28;20174;-82
2021/11/11 12:40:00;;;;;;;25.53;16.90;;;11.40;1.00;;;;;;5059610;28;20190;-85
2021/11/11 12:42:34;;;;;;;26.03;17.33;;;11.40;1.00;;;;;;5040838;28;20232;-86
2021/11/11 12:45:14;;;;;;;24.27;16.47;;;11.60;1.00;;;;;;5041346;28;20169;-83
2021/11/11 12:48:04;;;;;;;21.20;16.00;;;11.90;1.00;;;;;;5061139;28;20162;-83
2021/11/11 12:50:45;;;;;;;22.70;16.70;;;12.00;1.00;;;;;;5049471;28;20173;-85
2021/11/11 12:53:16;;;;;;;23.17;16.30;;;11.90;1.00;;;;;;5049464;28;20172;-84
2021/11/11 12:55:55;;;;;;;22.23;16.37;;;11.80;1.00;;;;;;5062392;28;20179;-84
2021/11/11 12:58:39;;;;;;;22.63;16.80;;;11.90;1.00;;;;;;5046597;28;20177;-83
2021/11/11 13:01:12;;;;;;;24.37;16.97;;;12.10;1.00;;;;;;5051940;28;20192;-83
2021/11/11 13:04:13;;;;;;;24.07;17.00;;;12.10;1.00;;;;;;5052854;28;20268;-82
2021/11/11 13:06:55;;;;;;;24.87;18.27;;;11.90;1.00;;;;;;5053140;28;20192;-84
2021/11/11 13:09:34;;;;;;;20.37;15.23;;;11.70;1.00;;;;;;5055267;28;20218;-84
2021/11/11 13:12:06;;;;;;;21.87;15.33;;;11.60;1.00;;;;;;5052178;28;20177;-84
2021/11/11 13:14:50;;;;;;;21.80;15.60;;;11.70;1.00;;;;;;5051084;28;20184;-84
2021/11/11 13:17:18;;;;;;;20.47;15.63;;;11.80;1.00;;;;;;5068412;28;20161;-84
2021/11/11 13:19:51;;;;;;;22.43;15.47;;;11.90;1.00;;;;;;5048997;28;20190;-84
2021/11/11 13:22:25;;;;;;;24.07;15.87;;;11.90;1.00;;;;;;5069411;28;20305;-86
2021/11/11 15:46:38;;;;;;;18.00;12.70;;;11.90;1.00;;;;;;5062915;28;20278;-84
2021/11/11 16:26:26;;;;;;;19.17;13.30;;;11.50;1.00;;;;;;5061692;28;20187;-85
2021/11/11 16:28:58;;;;;;;18.13;13.43;;;11.60;1.00;;;;;;5041900;28;20232;-85
2021/11/11 16:31:25;;;;;;;23.63;13.73;;;11.60;1.00;;;;;;5044040;28;20211;-82
2021/11/11 16:33:52;;;;;;;20.57;13.53;;;11.70;1.00;;;;;;5044426;28;20180;-85
2021/11/11 16:36:20;;;;;;;20.80;14.23;;;11.70;1.00;;;;;;5042116;28;20185;-85
2021/11/11 16:38:47;;;;;;;22.83;13.97;;;11.70;1.00;;;;;;5041735;28;20277;-85
2021/11/11 16:41:16;;;;;;;21.03;14.83;;;11.70;1.00;;;;;;5041775;28;20323;-85
2021/11/11 16:43:44;;;;;;;25.83;14.30;;;11.70;1.00;;;;;;5059348;28;20185;-85
2021/11/11 16:46:11;;;;;;;23.97;14.30;;;11.70;1.00;;;;;;5041925;28;20186;-85
2021/11/11 16:48:39;;;;;;;22.87;15.13;;;11.80;1.00;;;;;;5041737;28;20264;-86
2021/11/11 16:51:07;;;;;;;25.13;15.10;;;11.80;1.00;;;;;;5042267;28;20560;-86
2021/11/11 16:53:45;;;;;;;21.73;15.60;;;11.90;1.00;;;;;;5064088;28;20193;-87
2021/11/11 16:56:12;;;;;;;22.93;14.87;;;11.60;1.00;;;;;;5052704;28;20177;-87